Weather at Florida Airport

Public forecast

Using degrees Celsius for public forecast. Weather courtesy of forecast.io.

Closest aviation weather report (METAR) to Florida Airport

Closest report is Ignacio Agramonte International Airport, 20.4 nm (37.8 km) ESE.

2024/04/18 00:50 (retrieved 1 hour ago)

MUCM 180050Z 02010KT 9000 FEW020 24/20 Q1016

Closest aviation forecast (TAF) to Florida Airport

Forecast is more than 6 hours old.

Closest forecast is Vilo Acuña International Airport, 186.8 nm (346.0 km) W.

2024/04/17 18:00 (retrieved 8 hours ago)

TAF MUCL 171700Z 1718/1806 09012KT 9000 FEW020 BECMG 1802/1803 03014KT